sensor_id;sensor_type;location;lat;lon;timestamp;pressure;altitude;pressure_sealevel;temperature;humidity
44140;BME280;29803;51.048;4.686;2023-04-10T00:00:52;102032.16;;;8.62;100.00
44140;BME280;29803;51.048;4.686;2023-04-10T00:03:26;102022.31;;;8.63;100.00
44140;BME280;29803;51.048;4.686;2023-04-10T00:05:57;102013.19;;;8.65;100.00
44140;BME280;29803;51.048;4.686;2023-04-10T00:08:27;102017.31;;;8.69;100.00
44140;BME280;29803;51.048;4.686;2023-04-10T00:10:58;102015.84;;;8.76;100.00
44140;BME280;29803;51.048;4.686;2023-04-10T00:13:28;102015.59;;;8.79;100.00
44140;BME280;29803;51.048;4.686;2023-04-10T00:15:59;102017.28;;;8.80;100.00
44140;BME280;29803;51.048;4.686;2023-04-10T00:18:30;102012.41;;;8.86;100.00
44140;BME280;29803;51.048;4.686;2023-04-10T00:21:02;102007.78;;;8.88;100.00
44140;BME280;29803;51.048;4.686;2023-04-10T00:23:32;102017.06;;;8.84;100.00
44140;BME280;29803;51.048;4.686;2023-04-10T00:26:04;102007.56;;;8.79;100.00
44140;BME280;29803;51.048;4.686;2023-04-10T00:28:34;102015.97;;;8.75;100.00
44140;BME280;29803;51.048;4.686;2023-04-10T00:31:07;102010.88;;;8.72;100.00
44140;BME280;29803;51.048;4.686;2023-04-10T00:33:37;102003.69;;;8.72;100.00
44140;BME280;29803;51.048;4.686;2023-04-10T00:36:08;102009.16;;;8.71;100.00
44140;BME280;29803;51.048;4.686;2023-04-10T00:38:38;102004.91;;;8.68;100.00
44140;BME280;29803;51.048;4.686;2023-04-10T00:41:08;102008.69;;;8.66;100.00
44140;BME280;29803;51.048;4.686;2023-04-10T00:43:40;102002.22;;;8.68;100.00
44140;BME280;29803;51.048;4.686;2023-04-10T00:46:10;101996.16;;;8.66;100.00
44140;BME280;29803;51.048;4.686;2023-04-10T00:48:41;101992.88;;;8.74;100.00
44140;BME280;29803;51.048;4.686;2023-04-10T00:51:11;101990.44;;;8.71;100.00
44140;BME280;29803;51.048;4.686;2023-04-10T00:53:42;101994.19;;;8.68;100.00
44140;BME280;29803;51.048;4.686;2023-04-10T00:56:13;101988.28;;;8.65;100.00
44140;BME280;29803;51.048;4.686;2023-04-10T00:58:44;101992.31;;;8.59;100.00
44140;BME280;29803;51.048;4.686;2023-04-10T01:01:15;101981.47;;;8.61;100.00
44140;BME280;29803;51.048;4.686;2023-04-10T01:03:46;101979.59;;;8.72;100.00
44140;BME280;29803;51.048;4.686;2023-04-10T01:09:27;101975.94;;;8.85;100.00
44140;BME280;29803;51.048;4.686;2023-04-10T01:12:37;101969.00;;;8.82;100.00
44140;BME280;29803;51.048;4.686;2023-04-10T01:15:16;101965.94;;;8.87;100.00
44140;BME280;29803;51.048;4.686;2023-04-10T01:17:54;101965.78;;;8.88;100.00
44140;BME280;29803;51.048;4.686;2023-04-10T01:20:28;101963.59;;;8.93;100.00
44140;BME280;29803;51.048;4.686;2023-04-10T01:26:12;101962.78;;;9.14;100.00
44140;BME280;29803;51.048;4.686;2023-04-10T01:29:00;101965.25;;;9.05;100.00
44140;BME280;29803;51.048;4.686;2023-04-10T01:31:43;101955.91;;;9.00;100.00
44140;BME280;29803;51.048;4.686;2023-04-10T01:34:35;101955.06;;;8.99;100.00
44140;BME280;29803;51.048;4.686;2023-04-10T01:37:12;101953.09;;;9.01;100.00
44140;BME280;29803;51.048;4.686;2023-04-10T01:39:49;101943.75;;;8.96;100.00
44140;BME280;29803;51.048;4.686;2023-04-10T01:42:21;101943.44;;;8.89;100.00
44140;BME280;29803;51.048;4.686;2023-04-10T01:44:54;101933.69;;;8.88;100.00
44140;BME280;29803;51.048;4.686;2023-04-10T01:47:25;101931.94;;;8.98;100.00
44140;BME280;29803;51.048;4.686;2023-04-10T01:49:57;101924.03;;;8.97;100.00
44140;BME280;29803;51.048;4.686;2023-04-10T01:52:30;101928.22;;;8.90;100.00
44140;BME280;29803;51.048;4.686;2023-04-10T01:55:00;101920.44;;;8.87;100.00
44140;BME280;29803;51.048;4.686;2023-04-10T01:57:32;101917.06;;;8.85;100.00
44140;BME280;29803;51.048;4.686;2023-04-10T02:00:20;101907.97;;;8.76;100.00
44140;BME280;29803;51.048;4.686;2023-04-10T02:02:52;101912.72;;;8.72;100.00
44140;BME280;29803;51.048;4.686;2023-04-10T02:05:28;101907.50;;;8.71;100.00
44140;BME280;29803;51.048;4.686;2023-04-10T02:12:01;101896.81;;;8.71;100.00
44140;BME280;29803;51.048;4.686;2023-04-10T02:14:35;101890.28;;;8.64;100.00
44140;BME280;29803;51.048;4.686;2023-04-10T02:17:08;101888.00;;;8.59;100.00
44140;BME280;29803;51.048;4.686;2023-04-10T02:19:47;101888.00;;;8.59;100.00
44140;BME280;29803;51.048;4.686;2023-04-10T02:22:18;101888.94;;;8.58;100.00
44140;BME280;29803;51.048;4.686;2023-04-10T02:24:49;101890.78;;;8.57;100.00
44140;BME280;29803;51.048;4.686;2023-04-10T02:27:36;101883.13;;;8.53;100.00
44140;BME280;29803;51.048;4.686;2023-04-10T02:30:08;101890.81;;;8.46;100.00
44140;BME280;29803;51.048;4.686;2023-04-10T02:32:38;101893.50;;;8.46;100.00
44140;BME280;29803;51.048;4.686;2023-04-10T02:35:09;101891.19;;;8.42;100.00
44140;BME280;29803;51.048;4.686;2023-04-10T02:37:39;101892.31;;;8.39;100.00
44140;BME280;29803;51.048;4.686;2023-04-10T02:40:11;101886.47;;;8.34;100.00
44140;BME280;29803;51.048;4.686;2023-04-10T02:42:42;101890.50;;;8.28;100.00
44140;BME280;29803;51.048;4.686;2023-04-10T02:45:12;101887.59;;;8.20;100.00
44140;BME280;29803;51.048;4.686;2023-04-10T02:47:43;101891.47;;;8.16;100.00
44140;BME280;29803;51.048;4.686;2023-04-10T02:50:13;101894.28;;;8.15;100.00
44140;BME280;29803;51.048;4.686;2023-04-10T02:52:44;101890.63;;;8.16;100.00
44140;BME280;29803;51.048;4.686;2023-04-10T02:55:14;101887.25;;;8.14;100.00
44140;BME280;29803;51.048;4.686;2023-04-10T02:57:45;101885.53;;;8.13;100.00
44140;BME280;29803;51.048;4.686;2023-04-10T03:00:16;101890.28;;;8.09;100.00
44140;BME280;29803;51.048;4.686;2023-04-10T03:02:48;101895.16;;;8.04;100.00
44140;BME280;29803;51.048;4.686;2023-04-10T03:05:18;101892.00;;;7.99;100.00
44140;BME280;29803;51.048;4.686;2023-04-10T03:07:49;101888.03;;;7.93;100.00
44140;BME280;29803;51.048;4.686;2023-04-10T03:10:19;101879.63;;;7.87;100.00
44140;BME280;29803;51.048;4.686;2023-04-10T03:12:50;101881.22;;;7.78;100.00
44140;BME280;29803;51.048;4.686;2023-04-10T03:15:20;101880.72;;;7.73;100.00
44140;BME280;29803;51.048;4.686;2023-04-10T03:17:51;101872.22;;;7.68;100.00
44140;BME280;29803;51.048;4.686;2023-04-10T03:20:22;101879.75;;;7.63;100.00
44140;BME280;29803;51.048;4.686;2023-04-10T03:22:52;101879.28;;;7.58;100.00
44140;BME280;29803;51.048;4.686;2023-04-10T03:25:23;101874.44;;;7.51;100.00
44140;BME280;29803;51.048;4.686;2023-04-10T03:27:54;101873.22;;;7.44;100.00
44140;BME280;29803;51.048;4.686;2023-04-10T03:30:24;101874.66;;;7.37;100.00
44140;BME280;29803;51.048;4.686;2023-04-10T03:32:55;101871.63;;;7.31;100.00
44140;BME280;29803;51.048;4.686;2023-04-10T03:35:25;101858.78;;;7.24;100.00
44140;BME280;29803;51.048;4.686;2023-04-10T03:37:56;101857.19;;;7.22;100.00
44140;BME280;29803;51.048;4.686;2023-04-10T03:40:26;101854.63;;;7.20;100.00
44140;BME280;29803;51.048;4.686;2023-04-10T03:42:57;101846.84;;;7.17;100.00
44140;BME280;29803;51.048;4.686;2023-04-10T03:45:27;101844.53;;;7.13;100.00
44140;BME280;29803;51.048;4.686;2023-04-10T03:47:58;101850.00;;;7.11;100.00
44140;BME280;29803;51.048;4.686;2023-04-10T03:50:29;101852.81;;;7.10;100.00
44140;BME280;29803;51.048;4.686;2023-04-10T03:53:00;101850.28;;;7.08;100.00
44140;BME280;29803;51.048;4.686;2023-04-10T03:55:30;101852.31;;;7.05;100.00
44140;BME280;29803;51.048;4.686;2023-04-10T03:58:01;101841.16;;;6.99;100.00
44140;BME280;29803;51.048;4.686;2023-04-10T04:00:32;101837.72;;;6.97;100.00
44140;BME280;29803;51.048;4.686;2023-04-10T04:03:02;101847.47;;;6.98;100.00
44140;BME280;29803;51.048;4.686;2023-04-10T04:05:34;101840.41;;;6.97;100.00
44140;BME280;29803;51.048;4.686;2023-04-10T04:08:04;101829.00;;;6.95;100.00
44140;BME280;29803;51.048;4.686;2023-04-10T04:10:36;101823.19;;;6.90;100.00
44140;BME280;29803;51.048;4.686;2023-04-10T04:13:06;101818.06;;;6.87;100.00
44140;BME280;29803;51.048;4.686;2023-04-10T04:15:37;101822.81;;;6.84;100.00
44140;BME280;29803;51.048;4.686;2023-04-10T04:18:08;101821.22;;;6.81;100.00
44140;BME280;29803;51.048;4.686;2023-04-10T04:20:38;101816.16;;;6.78;100.00
44140;BME280;29803;51.048;4.686;2023-04-10T04:23:09;101810.91;;;6.77;100.00
44140;BME280;29803;51.048;4.686;2023-04-10T04:25:39;101803.88;;;6.75;100.00
44140;BME280;29803;51.048;4.686;2023-04-10T04:28:10;101807.66;;;6.73;100.00
44140;BME280;29803;51.048;4.686;2023-04-10T04:30:42;101807.53;;;6.74;100.00
44140;BME280;29803;51.048;4.686;2023-04-10T04:33:13;101811.75;;;6.77;100.00
44140;BME280;29803;51.048;4.686;2023-04-10T04:35:43;101816.00;;;6.80;100.00
44140;BME280;29803;51.048;4.686;2023-04-10T04:38:14;101815.88;;;6.81;100.00
44140;BME280;29803;51.048;4.686;2023-04-10T04:40:46;101812.38;;;6.81;100.00
44140;BME280;29803;51.048;4.686;2023-04-10T04:43:16;101815.88;;;6.81;100.00
44140;BME280;29803;51.048;4.686;2023-04-10T04:45:46;101806.91;;;6.82;100.00
44140;BME280;29803;51.048;4.686;2023-04-10T04:48:17;101792.63;;;6.83;100.00
44140;BME280;29803;51.048;4.686;2023-04-10T04:50:48;101797.09;;;6.83;100.00
44140;BME280;29803;51.048;4.686;2023-04-10T04:53:18;101798.81;;;6.84;100.00
44140;BME280;29803;51.048;4.686;2023-04-10T04:55:49;101800.63;;;6.83;100.00
44140;BME280;29803;51.048;4.686;2023-04-10T04:58:19;101799.66;;;6.84;100.00
44140;BME280;29803;51.048;4.686;2023-04-10T05:00:51;101803.03;;;6.86;100.00
44140;BME280;29803;51.048;4.686;2023-04-10T05:03:21;101801.97;;;6.89;100.00
44140;BME280;29803;51.048;4.686;2023-04-10T05:05:52;101792.16;;;6.89;100.00
44140;BME280;29803;51.048;4.686;2023-04-10T05:08:22;101789.34;;;6.91;100.00
44140;BME280;29803;51.048;4.686;2023-04-10T05:10:53;101790.09;;;6.93;100.00
44140;BME280;29803;51.048;4.686;2023-04-10T05:13:23;101774.81;;;6.95;100.00
44140;BME280;29803;51.048;4.686;2023-04-10T05:15:54;101780.88;;;6.97;100.00
44140;BME280;29803;51.048;4.686;2023-04-10T05:18:25;101775.44;;;6.98;100.00
44140;BME280;29803;51.048;4.686;2023-04-10T05:20:55;101762.56;;;7.04;100.00
44140;BME280;29803;51.048;4.686;2023-04-10T05:23:26;101769.25;;;7.09;100.00
44140;BME280;29803;51.048;4.686;2023-04-10T05:25:56;101774.09;;;7.15;100.00
44140;BME280;29803;51.048;4.686;2023-04-10T05:28:27;101781.03;;;7.18;100.00
44140;BME280;29803;51.048;4.686;2023-04-10T05:30:57;101784.41;;;7.20;100.00
44140;BME280;29803;51.048;4.686;2023-04-10T05:33:28;101787.78;;;7.22;100.00
44140;BME280;29803;51.048;4.686;2023-04-10T05:35:58;101793.75;;;7.25;100.00
44140;BME280;29803;51.048;4.686;2023-04-10T05:38:28;101799.78;;;7.27;100.00
44140;BME280;29803;51.048;4.686;2023-04-10T05:40:59;101796.75;;;7.32;100.00
44140;BME280;29803;51.048;4.686;2023-04-10T05:43:29;101798.09;;;7.38;100.00
44140;BME280;29803;51.048;4.686;2023-04-10T05:46:00;101796.03;;;7.41;100.00
44140;BME280;29803;51.048;4.686;2023-04-10T05:48:30;101793.97;;;7.45;100.00
44140;BME280;29803;51.048;4.686;2023-04-10T05:51:01;101799.78;;;7.50;100.00
44140;BME280;29803;51.048;4.686;2023-04-10T05:53:31;101792.75;;;7.60;100.00
44140;BME280;29803;51.048;4.686;2023-04-10T05:56:02;101798.19;;;7.70;100.00
44140;BME280;29803;51.048;4.686;2023-04-10T05:58:32;101801.06;;;7.78;100.00
44140;BME280;29803;51.048;4.686;2023-04-10T06:01:03;101795.13;;;7.86;100.00
44140;BME280;29803;51.048;4.686;2023-04-10T06:03:33;101799.84;;;7.93;100.00
44140;BME280;29803;51.048;4.686;2023-04-10T06:06:06;101790.56;;;7.97;100.00
44140;BME280;29803;51.048;4.686;2023-04-10T06:08:36;101791.19;;;8.01;100.00
44140;BME280;29803;51.048;4.686;2023-04-10T06:11:07;101788.13;;;8.05;100.00
44140;BME280;29803;51.048;4.686;2023-04-10T06:13:37;101792.13;;;8.11;100.00
44140;BME280;29803;51.048;4.686;2023-04-10T06:16:08;101787.97;;;8.18;100.00
44140;BME280;29803;51.048;4.686;2023-04-10T06:18:39;101784.66;;;8.26;100.00
44140;BME280;29803;51.048;4.686;2023-04-10T06:21:09;101777.69;;;8.35;100.00
44140;BME280;29803;51.048;4.686;2023-04-10T06:23:40;101769.03;;;8.42;100.00
44140;BME280;29803;51.048;4.686;2023-04-10T06:26:11;101769.50;;;8.47;100.00
44140;BME280;29803;51.048;4.686;2023-04-10T06:28:41;101760.09;;;8.53;100.00
44140;BME280;29803;51.048;4.686;2023-04-10T06:31:12;101765.06;;;8.57;100.00
44140;BME280;29803;51.048;4.686;2023-04-10T06:33:42;101753.50;;;8.57;100.00
44140;BME280;29803;51.048;4.686;2023-04-10T06:36:13;101756.66;;;8.62;100.00
44140;BME280;29803;51.048;4.686;2023-04-10T06:38:43;101750.91;;;8.67;100.00
44140;BME280;29803;51.048;4.686;2023-04-10T06:41:14;101752.19;;;8.72;100.00
44140;BME280;29803;51.048;4.686;2023-04-10T06:43:44;101747.59;;;8.74;100.00
44140;BME280;29803;51.048;4.686;2023-04-10T06:46:15;101746.44;;;8.77;100.00
44140;BME280;29803;51.048;4.686;2023-04-10T06:48:46;101735.50;;;8.80;100.00
44140;BME280;29803;51.048;4.686;2023-04-10T06:51:16;101727.63;;;8.88;100.00
44140;BME280;29803;51.048;4.686;2023-04-10T06:53:47;101730.63;;;8.95;100.00
44140;BME280;29803;51.048;4.686;2023-04-10T06:56:18;101723.75;;;9.02;100.00
44140;BME280;29803;51.048;4.686;2023-04-10T06:58:48;101728.56;;;9.08;100.00
44140;BME280;29803;51.048;4.686;2023-04-10T07:01:19;101721.69;;;9.15;100.00
44140;BME280;29803;51.048;4.686;2023-04-10T07:03:49;101715.22;;;9.18;100.00
44140;BME280;29803;51.048;4.686;2023-04-10T07:06:20;101720.75;;;9.26;100.00
44140;BME280;29803;51.048;4.686;2023-04-10T07:08:50;101714.00;;;9.31;100.00
44140;BME280;29803;51.048;4.686;2023-04-10T07:11:20;101706.97;;;9.40;100.00
44140;BME280;29803;51.048;4.686;2023-04-10T07:13:51;101696.53;;;9.47;100.00
44140;BME280;29803;51.048;4.686;2023-04-10T07:16:22;101697.72;;;9.54;100.00
44140;BME280;29803;51.048;4.686;2023-04-10T07:18:53;101691.50;;;9.63;100.00
44140;BME280;29803;51.048;4.686;2023-04-10T07:21:23;101686.03;;;9.74;100.00
44140;BME280;29803;51.048;4.686;2023-04-10T07:23:54;101669.94;;;9.84;100.00
44140;BME280;29803;51.048;4.686;2023-04-10T07:26:24;101665.69;;;9.91;100.00
44140;BME280;29803;51.048;4.686;2023-04-10T07:28:55;101662.16;;;10.00;100.00
44140;BME280;29803;51.048;4.686;2023-04-10T07:31:25;101658.75;;;10.08;100.00
44140;BME280;29803;51.048;4.686;2023-04-10T07:33:56;101645.66;;;10.15;100.00
44140;BME280;29803;51.048;4.686;2023-04-10T07:36:26;101652.38;;;10.19;100.00
44140;BME280;29803;51.048;4.686;2023-04-10T07:38:57;101651.53;;;10.18;100.00
44140;BME280;29803;51.048;4.686;2023-04-10T07:41:27;101655.22;;;10.27;100.00
44140;BME280;29803;51.048;4.686;2023-04-10T07:43:58;101651.28;;;10.31;100.00
44140;BME280;29803;51.048;4.686;2023-04-10T07:46:28;101647.44;;;10.33;100.00
44140;BME280;29803;51.048;4.686;2023-04-10T07:48:59;101641.81;;;10.36;100.00
44140;BME280;29803;51.048;4.686;2023-04-10T07:51:29;101636.28;;;10.38;100.00
44140;BME280;29803;51.048;4.686;2023-04-10T07:54:00;101627.97;;;10.41;100.00
44140;BME280;29803;51.048;4.686;2023-04-10T07:56:30;101634.13;;;10.51;100.00
44140;BME280;29803;51.048;4.686;2023-04-10T07:59:01;101646.22;;;10.65;100.00
44140;BME280;29803;51.048;4.686;2023-04-10T08:01:32;101642.56;;;10.66;100.00
44140;BME280;29803;51.048;4.686;2023-04-10T08:04:03;101639.56;;;10.69;100.00
44140;BME280;29803;51.048;4.686;2023-04-10T08:06:33;101645.78;;;10.70;100.00
44140;BME280;29803;51.048;4.686;2023-04-10T08:09:04;101639.84;;;10.76;100.00
44140;BME280;29803;51.048;4.686;2023-04-10T08:11:36;101643.91;;;10.80;100.00
44140;BME280;29803;51.048;4.686;2023-04-10T08:14:06;101642.88;;;10.91;100.00
44140;BME280;29803;51.048;4.686;2023-04-10T08:16:37;101639.75;;;10.95;100.00
44140;BME280;29803;51.048;4.686;2023-04-10T08:19:08;101642.50;;;11.03;100.00
44140;BME280;29803;51.048;4.686;2023-04-10T08:21:38;101636.72;;;11.26;100.00
44140;BME280;29803;51.048;4.686;2023-04-10T08:24:09;101634.03;;;11.44;100.00
44140;BME280;29803;51.048;4.686;2023-04-10T08:26:39;101628.31;;;11.56;100.00
44140;BME280;29803;51.048;4.686;2023-04-10T08:29:10;101628.16;;;11.40;100.00
44140;BME280;29803;51.048;4.686;2023-04-10T08:31:41;101633.69;;;11.56;100.00
44140;BME280;29803;51.048;4.686;2023-04-10T08:34:11;101627.00;;;11.43;100.00
44140;BME280;29803;51.048;4.686;2023-04-10T08:36:42;101631.03;;;11.64;100.00
44140;BME280;29803;51.048;4.686;2023-04-10T08:39:12;101618.22;;;11.76;100.00
44140;BME280;29803;51.048;4.686;2023-04-10T08:41:42;101626.06;;;11.70;100.00
44140;BME280;29803;51.048;4.686;2023-04-10T08:44:13;101620.25;;;11.92;100.00
44140;BME280;29803;51.048;4.686;2023-04-10T08:46:44;101624.34;;;12.04;100.00
44140;BME280;29803;51.048;4.686;2023-04-10T08:49:18;101617.03;;;12.14;100.00
44140;BME280;29803;51.048;4.686;2023-04-10T08:51:55;101616.25;;;12.22;100.00
44140;BME280;29803;51.048;4.686;2023-04-10T08:54:27;101607.28;;;12.13;100.00
44140;BME280;29803;51.048;4.686;2023-04-10T08:56:58;101611.75;;;12.05;100.00
44140;BME280;29803;51.048;4.686;2023-04-10T08:59:31;101612.16;;;12.10;100.00
44140;BME280;29803;51.048;4.686;2023-04-10T09:02:01;101601.78;;;12.23;100.00
44140;BME280;29803;51.048;4.686;2023-04-10T09:04:31;101591.88;;;12.24;100.00
44140;BME280;29803;51.048;4.686;2023-04-10T09:07:02;101581.13;;;12.24;100.00
44140;BME280;29803;51.048;4.686;2023-04-10T09:09:33;101598.16;;;12.06;100.00
44140;BME280;29803;51.048;4.686;2023-04-10T09:12:03;101585.09;;;12.11;100.00
44140;BME280;29803;51.048;4.686;2023-04-10T09:14:36;101585.75;;;12.13;100.00
44140;BME280;29803;51.048;4.686;2023-04-10T09:17:25;101576.91;;;12.21;100.00
44140;BME280;29803;51.048;4.686;2023-04-10T09:19:55;101579.63;;;12.29;100.00
44140;BME280;29803;51.048;4.686;2023-04-10T09:22:37;101569.09;;;12.44;100.00
44140;BME280;29803;51.048;4.686;2023-04-10T09:25:28;101573.72;;;12.60;100.00
44140;BME280;29803;51.048;4.686;2023-04-10T09:30:48;101558.44;;;12.60;100.00
44140;BME280;29803;51.048;4.686;2023-04-10T09:33:22;101552.75;;;12.72;100.00
44140;BME280;29803;51.048;4.686;2023-04-10T09:35:53;101550.06;;;12.80;100.00
44140;BME280;29803;51.048;4.686;2023-04-10T09:38:26;101545.75;;;13.03;100.00
44140;BME280;29803;51.048;4.686;2023-04-10T09:41:05;101550.84;;;13.06;100.00
44140;BME280;29803;51.048;4.686;2023-04-10T09:43:37;101553.03;;;13.11;100.00
44140;BME280;29803;51.048;4.686;2023-04-10T09:46:08;101554.16;;;13.00;100.00
44140;BME280;29803;51.048;4.686;2023-04-10T09:48:53;101552.34;;;13.01;100.00
44140;BME280;29803;51.048;4.686;2023-04-10T09:51:40;101544.91;;;13.03;100.00
44140;BME280;29803;51.048;4.686;2023-04-10T09:54:11;101538.69;;;13.02;100.00
44140;BME280;29803;51.048;4.686;2023-04-10T09:56:44;101538.19;;;13.15;100.00
44140;BME280;29803;51.048;4.686;2023-04-10T09:59:15;101537.28;;;13.40;100.00
44140;BME280;29803;51.048;4.686;2023-04-10T10:01:46;101530.34;;;13.46;100.00
44140;BME280;29803;51.048;4.686;2023-04-10T10:04:17;101526.97;;;13.52;100.00
44140;BME280;29803;51.048;4.686;2023-04-10T10:06:48;101529.16;;;13.65;100.00
44140;BME280;29803;51.048;4.686;2023-04-10T10:09:18;101520.88;;;13.91;100.00
44140;BME280;29803;51.048;4.686;2023-04-10T10:11:50;101521.56;;;13.77;100.00
44140;BME280;29803;51.048;4.686;2023-04-10T10:14:22;101510.59;;;13.86;100.00
44140;BME280;29803;51.048;4.686;2023-04-10T10:16:55;101501.63;;;13.94;100.00
44140;BME280;29803;51.048;4.686;2023-04-10T10:19:30;101497.06;;;14.11;100.00
44140;BME280;29803;51.048;4.686;2023-04-10T10:22:02;101482.97;;;14.32;100.00
44140;BME280;29803;51.048;4.686;2023-04-10T10:24:34;101492.44;;;14.67;100.00
44140;BME280;29803;51.048;4.686;2023-04-10T10:27:08;101493.44;;;14.97;100.00
44140;BME280;29803;51.048;4.686;2023-04-10T10:29:40;101490.56;;;15.21;100.00
44140;BME280;29803;51.048;4.686;2023-04-10T10:32:12;101481.13;;;15.17;100.00
44140;BME280;29803;51.048;4.686;2023-04-10T10:34:44;101479.88;;;15.28;100.00
44140;BME280;29803;51.048;4.686;2023-04-10T10:37:16;101473.81;;;15.41;100.00
44140;BME280;29803;51.048;4.686;2023-04-10T10:39:56;101459.63;;;15.62;100.00
44140;BME280;29803;51.048;4.686;2023-04-10T10:45:58;101457.59;;;15.41;100.00
44140;BME280;29803;51.048;4.686;2023-04-10T10:48:31;101456.31;;;15.37;100.00
44140;BME280;29803;51.048;4.686;2023-04-10T10:51:01;101448.22;;;15.51;100.00
44140;BME280;29803;51.048;4.686;2023-04-10T10:53:36;101441.22;;;15.42;100.00
44140;BME280;29803;51.048;4.686;2023-04-10T10:58:57;101424.66;;;15.75;100.00
44140;BME280;29803;51.048;4.686;2023-04-10T11:01:28;101417.66;;;15.95;100.00
44140;BME280;29803;51.048;4.686;2023-04-10T11:03:58;101413.22;;;16.39;100.00
44140;BME280;29803;51.048;4.686;2023-04-10T11:06:48;101411.19;;;16.62;100.00
44140;BME280;29803;51.048;4.686;2023-04-10T11:12:28;101403.16;;;16.33;100.00
44140;BME280;29803;51.048;4.686;2023-04-10T11:15:00;101396.06;;;16.31;100.00
44140;BME280;29803;51.048;4.686;2023-04-10T11:17:49;101395.94;;;16.03;100.00
44140;BME280;29803;51.048;4.686;2023-04-10T11:20:20;101389.13;;;15.93;100.00
44140;BME280;29803;51.048;4.686;2023-04-10T11:23:06;101390.31;;;16.05;100.00
44140;BME280;29803;51.048;4.686;2023-04-10T11:25:54;101386.13;;;16.17;100.00
44140;BME280;29803;51.048;4.686;2023-04-10T11:28:42;101382.44;;;16.25;100.00
44140;BME280;29803;51.048;4.686;2023-04-10T11:31:32;101371.63;;;16.46;100.00
44140;BME280;29803;51.048;4.686;2023-04-10T11:34:04;101362.28;;;16.49;100.00
44140;BME280;29803;51.048;4.686;2023-04-10T11:36:38;101377.91;;;16.47;100.00
44140;BME280;29803;51.048;4.686;2023-04-10T11:39:11;101369.78;;;16.47;100.00
44140;BME280;29803;51.048;4.686;2023-04-10T11:41:44;101361.47;;;16.48;100.00
44140;BME280;29803;51.048;4.686;2023-04-10T11:44:18;101357.56;;;16.72;100.00
44140;BME280;29803;51.048;4.686;2023-04-10T11:46:56;101358.66;;;16.78;100.00
44140;BME280;29803;51.048;4.686;2023-04-10T11:49:29;101346.72;;;16.72;100.00
44140;BME280;29803;51.048;4.686;2023-04-10T11:52:00;101352.00;;;17.02;100.00
44140;BME280;29803;51.048;4.686;2023-04-10T11:54:30;101344.13;;;16.86;100.00
44140;BME280;29803;51.048;4.686;2023-04-10T11:57:04;101338.56;;;16.94;100.00
44140;BME280;29803;51.048;4.686;2023-04-10T11:59:35;101330.47;;;16.72;100.00
44140;BME280;29803;51.048;4.686;2023-04-10T12:02:07;101330.97;;;16.82;100.00
44140;BME280;29803;51.048;4.686;2023-04-10T12:04:38;101318.75;;;16.93;100.00
44140;BME280;29803;51.048;4.686;2023-04-10T12:07:09;101312.69;;;16.70;100.00
44140;BME280;29803;51.048;4.686;2023-04-10T12:09:40;101305.47;;;16.55;100.00
44140;BME280;29803;51.048;4.686;2023-04-10T12:12:11;101318.69;;;16.65;100.00
44140;BME280;29803;51.048;4.686;2023-04-10T12:14:44;101312.25;;;16.45;100.00
44140;BME280;29803;51.048;4.686;2023-04-10T12:17:15;101316.47;;;16.47;100.00
44140;BME280;29803;51.048;4.686;2023-04-10T12:19:46;101312.78;;;16.55;100.00
44140;BME280;29803;51.048;4.686;2023-04-10T12:22:17;101303.75;;;16.48;100.00
44140;BME280;29803;51.048;4.686;2023-04-10T12:24:50;101307.94;;;16.50;100.00
44140;BME280;29803;51.048;4.686;2023-04-10T12:27:23;101307.94;;;16.29;100.00
44140;BME280;29803;51.048;4.686;2023-04-10T12:29:57;101285.97;;;16.39;100.00
44140;BME280;29803;51.048;4.686;2023-04-10T12:32:27;101300.22;;;16.47;100.00
44140;BME280;29803;51.048;4.686;2023-04-10T12:34:58;101298.19;;;16.35;100.00
44140;BME280;29803;51.048;4.686;2023-04-10T12:37:50;101291.56;;;16.37;100.00
44140;BME280;29803;51.048;4.686;2023-04-10T12:40:20;101296.06;;;16.30;100.00
44140;BME280;29803;51.048;4.686;2023-04-10T12:42:51;101293.31;;;16.23;100.00
44140;BME280;29803;51.048;4.686;2023-04-10T12:45:40;101272.84;;;16.21;100.00
44140;BME280;29803;51.048;4.686;2023-04-10T12:48:21;101273.00;;;16.13;100.00
44140;BME280;29803;51.048;4.686;2023-04-10T12:50:52;101262.19;;;16.13;100.00
44140;BME280;29803;51.048;4.686;2023-04-10T12:53:23;101266.56;;;16.14;100.00
44140;BME280;29803;51.048;4.686;2023-04-10T12:58:28;101259.25;;;16.14;100.00
44140;BME280;29803;51.048;4.686;2023-04-10T13:01:03;101257.41;;;16.15;100.00
44140;BME280;29803;51.048;4.686;2023-04-10T13:03:36;101258.38;;;16.07;100.00
44140;BME280;29803;51.048;4.686;2023-04-10T13:06:07;101243.81;;;16.08;100.00
44140;BME280;29803;51.048;4.686;2023-04-10T13:08:37;101244.19;;;16.05;100.00
44140;BME280;29803;51.048;4.686;2023-04-10T13:11:08;101244.13;;;15.98;100.00
44140;BME280;29803;51.048;4.686;2023-04-10T13:13:38;101224.97;;;16.00;100.00
44140;BME280;29803;51.048;4.686;2023-04-10T13:16:09;101215.91;;;16.08;100.00
44140;BME280;29803;51.048;4.686;2023-04-10T13:18:42;101201.13;;;16.10;100.00
44140;BME280;29803;51.048;4.686;2023-04-10T13:21:12;101203.78;;;16.03;100.00
44140;BME280;29803;51.048;4.686;2023-04-10T13:23:47;101202.28;;;16.01;100.00
44140;BME280;29803;51.048;4.686;2023-04-10T13:26:18;101204.38;;;15.99;100.00
44140;BME280;29803;51.048;4.686;2023-04-10T13:28:49;101200.00;;;15.98;100.00
44140;BME280;29803;51.048;4.686;2023-04-10T13:31:19;101194.16;;;15.79;100.00
44140;BME280;29803;51.048;4.686;2023-04-10T13:33:49;101187.19;;;15.70;100.00
44140;BME280;29803;51.048;4.686;2023-04-10T13:36:20;101177.44;;;15.54;100.00